sensor_id;sensor_type;location;lat;lon;timestamp;P1;durP1;ratioP1;P2;durP2;ratioP2
15077;SDS011;7638;49.760;8.646;2023-07-20T00:01:21;2.30;;;1.30;;
15077;SDS011;7638;49.760;8.646;2023-07-20T00:03:47;5.23;;;2.57;;
15077;SDS011;7638;49.760;8.646;2023-07-20T00:06:19;4.73;;;1.50;;
15077;SDS011;7638;49.760;8.646;2023-07-20T00:08:45;1.83;;;1.40;;
15077;SDS011;7638;49.760;8.646;2023-07-20T00:11:11;5.93;;;1.07;;
15077;SDS011;7638;49.760;8.646;2023-07-20T00:13:38;3.03;;;1.37;;
15077;SDS011;7638;49.760;8.646;2023-07-20T00:16:04;2.53;;;1.40;;
15077;SDS011;7638;49.760;8.646;2023-07-20T00:18:30;1.50;;;1.23;;
15077;SDS011;7638;49.760;8.646;2023-07-20T00:20:56;2.60;;;1.30;;
15077;SDS011;7638;49.760;8.646;2023-07-20T00:23:24;3.40;;;1.47;;
15077;SDS011;7638;49.760;8.646;2023-07-20T00:25:50;7.57;;;1.80;;
15077;SDS011;7638;49.760;8.646;2023-07-20T00:28:16;1.07;;;1.00;;
15077;SDS011;7638;49.760;8.646;2023-07-20T00:30:42;1.47;;;1.27;;
15077;SDS011;7638;49.760;8.646;2023-07-20T00:33:10;2.23;;;1.20;;
15077;SDS011;7638;49.760;8.646;2023-07-20T00:35:36;3.13;;;1.60;;
15077;SDS011;7638;49.760;8.646;2023-07-20T00:38:03;4.27;;;1.67;;
15077;SDS011;7638;49.760;8.646;2023-07-20T00:40:34;2.67;;;1.30;;
15077;SDS011;7638;49.760;8.646;2023-07-20T00:43:01;2.70;;;1.30;;
15077;SDS011;7638;49.760;8.646;2023-07-20T00:45:27;2.87;;;1.30;;
15077;SDS011;7638;49.760;8.646;2023-07-20T00:47:53;1.97;;;1.13;;
15077;SDS011;7638;49.760;8.646;2023-07-20T00:50:19;6.00;;;1.40;;
15077;SDS011;7638;49.760;8.646;2023-07-20T00:52:45;6.07;;;1.30;;
15077;SDS011;7638;49.760;8.646;2023-07-20T00:55:11;2.93;;;1.50;;
15077;SDS011;7638;49.760;8.646;2023-07-20T00:57:37;4.37;;;1.47;;
15077;SDS011;7638;49.760;8.646;2023-07-20T01:00:03;1.70;;;1.10;;
15077;SDS011;7638;49.760;8.646;2023-07-20T01:02:29;4.20;;;1.40;;
15077;SDS011;7638;49.760;8.646;2023-07-20T01:04:55;3.77;;;1.70;;
15077;SDS011;7638;49.760;8.646;2023-07-20T01:07:25;5.43;;;1.70;;
15077;SDS011;7638;49.760;8.646;2023-07-20T01:09:58;4.53;;;1.77;;
15077;SDS011;7638;49.760;8.646;2023-07-20T01:12:36;4.30;;;1.67;;
15077;SDS011;7638;49.760;8.646;2023-07-20T01:15:03;7.20;;;1.83;;
15077;SDS011;7638;49.760;8.646;2023-07-20T01:17:29;2.73;;;1.60;;
15077;SDS011;7638;49.760;8.646;2023-07-20T01:19:55;2.77;;;1.63;;
15077;SDS011;7638;49.760;8.646;2023-07-20T01:25:21;1.90;;;1.23;;
15077;SDS011;7638;49.760;8.646;2023-07-20T01:28:04;4.17;;;1.53;;
15077;SDS011;7638;49.760;8.646;2023-07-20T01:33:01;5.93;;;1.80;;
15077;SDS011;7638;49.760;8.646;2023-07-20T01:35:28;3.17;;;1.33;;
15077;SDS011;7638;49.760;8.646;2023-07-20T01:37:54;3.37;;;1.50;;
15077;SDS011;7638;49.760;8.646;2023-07-20T01:40:23;3.17;;;1.60;;
15077;SDS011;7638;49.760;8.646;2023-07-20T01:42:50;4.13;;;1.57;;
15077;SDS011;7638;49.760;8.646;2023-07-20T01:45:16;1.83;;;1.47;;
15077;SDS011;7638;49.760;8.646;2023-07-20T01:47:42;3.90;;;1.77;;
15077;SDS011;7638;49.760;8.646;2023-07-20T01:50:08;5.00;;;1.80;;
15077;SDS011;7638;49.760;8.646;2023-07-20T01:52:34;5.30;;;2.23;;
15077;SDS011;7638;49.760;8.646;2023-07-20T01:55:00;3.93;;;2.00;;
15077;SDS011;7638;49.760;8.646;2023-07-20T01:57:26;3.63;;;2.00;;
15077;SDS011;7638;49.760;8.646;2023-07-20T01:59:52;7.33;;;2.03;;
15077;SDS011;7638;49.760;8.646;2023-07-20T02:02:18;3.87;;;1.97;;
15077;SDS011;7638;49.760;8.646;2023-07-20T02:04:45;2.10;;;1.90;;
15077;SDS011;7638;49.760;8.646;2023-07-20T02:07:11;4.87;;;1.80;;
15077;SDS011;7638;49.760;8.646;2023-07-20T02:09:37;3.43;;;1.60;;
15077;SDS011;7638;49.760;8.646;2023-07-20T02:12:03;2.93;;;2.00;;
15077;SDS011;7638;49.760;8.646;2023-07-20T02:14:29;2.43;;;1.63;;
15077;SDS011;7638;49.760;8.646;2023-07-20T02:16:55;5.30;;;1.60;;
15077;SDS011;7638;49.760;8.646;2023-07-20T02:19:24;1.87;;;1.57;;
15077;SDS011;7638;49.760;8.646;2023-07-20T02:21:50;5.53;;;1.67;;
15077;SDS011;7638;49.760;8.646;2023-07-20T02:24:16;2.70;;;1.90;;
15077;SDS011;7638;49.760;8.646;2023-07-20T02:26:42;4.57;;;1.57;;
15077;SDS011;7638;49.760;8.646;2023-07-20T02:29:08;2.80;;;2.00;;
15077;SDS011;7638;49.760;8.646;2023-07-20T02:31:36;2.20;;;1.70;;
15077;SDS011;7638;49.760;8.646;2023-07-20T02:34:04;3.93;;;1.90;;
15077;SDS011;7638;49.760;8.646;2023-07-20T02:36:30;3.40;;;1.80;;
15077;SDS011;7638;49.760;8.646;2023-07-20T02:38:57;3.60;;;1.93;;
15077;SDS011;7638;49.760;8.646;2023-07-20T02:41:23;2.77;;;2.07;;
15077;SDS011;7638;49.760;8.646;2023-07-20T02:43:49;4.03;;;2.43;;
15077;SDS011;7638;49.760;8.646;2023-07-20T02:46:15;1.67;;;1.30;;
15077;SDS011;7638;49.760;8.646;2023-07-20T02:48:41;4.90;;;1.90;;
15077;SDS011;7638;49.760;8.646;2023-07-20T02:51:07;2.07;;;1.33;;
15077;SDS011;7638;49.760;8.646;2023-07-20T02:53:34;7.70;;;1.90;;
15077;SDS011;7638;49.760;8.646;2023-07-20T02:56:00;9.30;;;1.73;;
15077;SDS011;7638;49.760;8.646;2023-07-20T02:58:26;3.20;;;1.90;;
15077;SDS011;7638;49.760;8.646;2023-07-20T03:00:52;3.67;;;1.73;;
15077;SDS011;7638;49.760;8.646;2023-07-20T03:03:18;2.90;;;1.97;;
15077;SDS011;7638;49.760;8.646;2023-07-20T03:05:44;3.33;;;1.80;;
15077;SDS011;7638;49.760;8.646;2023-07-20T03:08:10;2.77;;;1.53;;
15077;SDS011;7638;49.760;8.646;2023-07-20T03:10:40;5.07;;;1.97;;
15077;SDS011;7638;49.760;8.646;2023-07-20T03:13:06;5.77;;;1.53;;
15077;SDS011;7638;49.760;8.646;2023-07-20T03:15:32;2.93;;;1.53;;
15077;SDS011;7638;49.760;8.646;2023-07-20T03:17:58;2.17;;;1.50;;
15077;SDS011;7638;49.760;8.646;2023-07-20T03:20:24;4.43;;;1.73;;
15077;SDS011;7638;49.760;8.646;2023-07-20T03:22:50;2.50;;;1.40;;
15077;SDS011;7638;49.760;8.646;2023-07-20T03:25:16;6.63;;;1.90;;
15077;SDS011;7638;49.760;8.646;2023-07-20T03:27:42;1.90;;;1.67;;
15077;SDS011;7638;49.760;8.646;2023-07-20T03:30:09;3.13;;;1.77;;
15077;SDS011;7638;49.760;8.646;2023-07-20T03:32:36;2.83;;;1.67;;
15077;SDS011;7638;49.760;8.646;2023-07-20T03:35:02;5.13;;;1.90;;
15077;SDS011;7638;49.760;8.646;2023-07-20T03:37:28;1.57;;;1.30;;
15077;SDS011;7638;49.760;8.646;2023-07-20T03:39:54;4.77;;;1.93;;
15077;SDS011;7638;49.760;8.646;2023-07-20T03:42:20;3.50;;;1.67;;
15077;SDS011;7638;49.760;8.646;2023-07-20T03:44:46;4.23;;;2.00;;
15077;SDS011;7638;49.760;8.646;2023-07-20T03:47:12;3.50;;;1.73;;
15077;SDS011;7638;49.760;8.646;2023-07-20T03:49:38;3.50;;;1.63;;
15077;SDS011;7638;49.760;8.646;2023-07-20T03:52:04;5.47;;;2.33;;
15077;SDS011;7638;49.760;8.646;2023-07-20T03:54:30;2.10;;;1.90;;
15077;SDS011;7638;49.760;8.646;2023-07-20T03:56:56;2.30;;;1.50;;
15077;SDS011;7638;49.760;8.646;2023-07-20T03:59:23;3.27;;;2.00;;
15077;SDS011;7638;49.760;8.646;2023-07-20T04:01:49;2.43;;;2.00;;
15077;SDS011;7638;49.760;8.646;2023-07-20T04:04:15;2.47;;;1.80;;
15077;SDS011;7638;49.760;8.646;2023-07-20T04:06:42;3.33;;;1.80;;
15077;SDS011;7638;49.760;8.646;2023-07-20T04:09:11;3.23;;;1.80;;
15077;SDS011;7638;49.760;8.646;2023-07-20T04:11:37;4.40;;;1.90;;
15077;SDS011;7638;49.760;8.646;2023-07-20T04:14:03;4.90;;;1.90;;
15077;SDS011;7638;49.760;8.646;2023-07-20T04:16:29;4.97;;;1.97;;
15077;SDS011;7638;49.760;8.646;2023-07-20T04:18:55;4.80;;;1.90;;
15077;SDS011;7638;49.760;8.646;2023-07-20T04:21:22;6.60;;;1.77;;
15077;SDS011;7638;49.760;8.646;2023-07-20T04:23:48;8.63;;;1.67;;
15077;SDS011;7638;49.760;8.646;2023-07-20T04:26:14;5.37;;;1.63;;
15077;SDS011;7638;49.760;8.646;2023-07-20T04:28:43;3.47;;;1.50;;
15077;SDS011;7638;49.760;8.646;2023-07-20T04:31:09;3.93;;;1.60;;
15077;SDS011;7638;49.760;8.646;2023-07-20T04:33:36;8.60;;;1.93;;
15077;SDS011;7638;49.760;8.646;2023-07-20T04:36:02;3.43;;;1.60;;
15077;SDS011;7638;49.760;8.646;2023-07-20T04:38:29;3.00;;;1.63;;
15077;SDS011;7638;49.760;8.646;2023-07-20T04:40:55;3.33;;;1.50;;
15077;SDS011;7638;49.760;8.646;2023-07-20T04:43:21;5.90;;;1.63;;
15077;SDS011;7638;49.760;8.646;2023-07-20T04:45:47;6.77;;;1.87;;
15077;SDS011;7638;49.760;8.646;2023-07-20T04:48:13;4.27;;;1.60;;
15077;SDS011;7638;49.760;8.646;2023-07-20T04:50:40;4.83;;;1.60;;
15077;SDS011;7638;49.760;8.646;2023-07-20T04:53:06;2.50;;;1.40;;
15077;SDS011;7638;49.760;8.646;2023-07-20T04:55:32;7.40;;;1.30;;
15077;SDS011;7638;49.760;8.646;2023-07-20T04:57:59;2.67;;;1.53;;
15077;SDS011;7638;49.760;8.646;2023-07-20T05:00:25;4.77;;;2.00;;
15077;SDS011;7638;49.760;8.646;2023-07-20T05:02:51;2.53;;;1.70;;
15077;SDS011;7638;49.760;8.646;2023-07-20T05:05:17;3.57;;;1.90;;
15077;SDS011;7638;49.760;8.646;2023-07-20T05:07:43;5.23;;;1.67;;
15077;SDS011;7638;49.760;8.646;2023-07-20T05:10:09;5.73;;;1.93;;
15077;SDS011;7638;49.760;8.646;2023-07-20T05:12:35;4.53;;;1.73;;
15077;SDS011;7638;49.760;8.646;2023-07-20T05:15:02;10.10;;;1.93;;
15077;SDS011;7638;49.760;8.646;2023-07-20T05:17:28;1.67;;;1.27;;
15077;SDS011;7638;49.760;8.646;2023-07-20T05:19:54;5.77;;;1.67;;
15077;SDS011;7638;49.760;8.646;2023-07-20T05:22:20;3.40;;;1.60;;
15077;SDS011;7638;49.760;8.646;2023-07-20T05:24:46;1.67;;;1.40;;
15077;SDS011;7638;49.760;8.646;2023-07-20T05:27:12;4.07;;;1.60;;
15077;SDS011;7638;49.760;8.646;2023-07-20T05:29:43;4.67;;;1.93;;
15077;SDS011;7638;49.760;8.646;2023-07-20T05:32:09;5.33;;;2.10;;
15077;SDS011;7638;49.760;8.646;2023-07-20T05:34:35;7.03;;;2.10;;
15077;SDS011;7638;49.760;8.646;2023-07-20T05:37:01;2.70;;;2.30;;
15077;SDS011;7638;49.760;8.646;2023-07-20T05:39:27;5.57;;;1.70;;
15077;SDS011;7638;49.760;8.646;2023-07-20T05:41:53;2.67;;;1.60;;
15077;SDS011;7638;49.760;8.646;2023-07-20T05:44:19;3.30;;;1.80;;
15077;SDS011;7638;49.760;8.646;2023-07-20T05:46:45;2.17;;;1.60;;
15077;SDS011;7638;49.760;8.646;2023-07-20T05:49:11;4.70;;;2.10;;
15077;SDS011;7638;49.760;8.646;2023-07-20T05:51:37;2.60;;;1.80;;
15077;SDS011;7638;49.760;8.646;2023-07-20T05:54:03;4.53;;;1.60;;
15077;SDS011;7638;49.760;8.646;2023-07-20T05:56:28;6.23;;;1.70;;
15077;SDS011;7638;49.760;8.646;2023-07-20T05:58:54;2.27;;;1.70;;
15077;SDS011;7638;49.760;8.646;2023-07-20T06:01:20;4.90;;;1.87;;
15077;SDS011;7638;49.760;8.646;2023-07-20T06:03:46;4.07;;;1.90;;
15077;SDS011;7638;49.760;8.646;2023-07-20T06:06:13;4.80;;;1.87;;
15077;SDS011;7638;49.760;8.646;2023-07-20T06:08:39;3.83;;;2.17;;
15077;SDS011;7638;49.760;8.646;2023-07-20T06:11:05;3.13;;;1.70;;
15077;SDS011;7638;49.760;8.646;2023-07-20T06:13:31;4.53;;;1.87;;
15077;SDS011;7638;49.760;8.646;2023-07-20T06:15:57;2.27;;;1.57;;
15077;SDS011;7638;49.760;8.646;2023-07-20T06:18:23;4.37;;;2.07;;
15077;SDS011;7638;49.760;8.646;2023-07-20T06:20:52;3.33;;;1.97;;
15077;SDS011;7638;49.760;8.646;2023-07-20T06:23:19;3.40;;;1.53;;
15077;SDS011;7638;49.760;8.646;2023-07-20T06:25:45;4.03;;;2.00;;
15077;SDS011;7638;49.760;8.646;2023-07-20T06:28:11;3.37;;;2.07;;
15077;SDS011;7638;49.760;8.646;2023-07-20T06:30:37;4.93;;;2.00;;
15077;SDS011;7638;49.760;8.646;2023-07-20T06:33:03;4.97;;;1.70;;
15077;SDS011;7638;49.760;8.646;2023-07-20T06:35:29;1.73;;;1.63;;
15077;SDS011;7638;49.760;8.646;2023-07-20T06:37:55;2.37;;;1.80;;
15077;SDS011;7638;49.760;8.646;2023-07-20T06:40:22;3.93;;;1.90;;
15077;SDS011;7638;49.760;8.646;2023-07-20T06:42:48;3.47;;;1.83;;
15077;SDS011;7638;49.760;8.646;2023-07-20T06:45:14;4.00;;;2.20;;
15077;SDS011;7638;49.760;8.646;2023-07-20T06:47:41;8.10;;;1.97;;
15077;SDS011;7638;49.760;8.646;2023-07-20T06:50:07;4.90;;;2.30;;
15077;SDS011;7638;49.760;8.646;2023-07-20T06:52:33;4.53;;;2.20;;
15077;SDS011;7638;49.760;8.646;2023-07-20T06:54:59;2.53;;;1.90;;
15077;SDS011;7638;49.760;8.646;2023-07-20T06:57:25;4.23;;;2.20;;
15077;SDS011;7638;49.760;8.646;2023-07-20T06:59:51;2.83;;;1.83;;
15077;SDS011;7638;49.760;8.646;2023-07-20T07:02:18;4.53;;;1.87;;
15077;SDS011;7638;49.760;8.646;2023-07-20T07:04:44;7.60;;;2.43;;
15077;SDS011;7638;49.760;8.646;2023-07-20T07:07:13;4.10;;;1.73;;
15077;SDS011;7638;49.760;8.646;2023-07-20T07:09:39;4.10;;;2.10;;
15077;SDS011;7638;49.760;8.646;2023-07-20T07:12:05;6.47;;;1.97;;
15077;SDS011;7638;49.760;8.646;2023-07-20T07:14:31;5.43;;;1.73;;
15077;SDS011;7638;49.760;8.646;2023-07-20T07:16:57;2.37;;;1.93;;
15077;SDS011;7638;49.760;8.646;2023-07-20T07:19:23;2.87;;;1.90;;
15077;SDS011;7638;49.760;8.646;2023-07-20T07:21:49;6.70;;;2.00;;
15077;SDS011;7638;49.760;8.646;2023-07-20T07:24:15;3.43;;;1.90;;
15077;SDS011;7638;49.760;8.646;2023-07-20T07:26:41;4.10;;;1.67;;
15077;SDS011;7638;49.760;8.646;2023-07-20T07:29:07;5.97;;;2.43;;
15077;SDS011;7638;49.760;8.646;2023-07-20T07:31:34;4.13;;;1.90;;
15077;SDS011;7638;49.760;8.646;2023-07-20T07:34:01;6.77;;;2.13;;
15077;SDS011;7638;49.760;8.646;2023-07-20T07:36:27;3.10;;;2.07;;
15077;SDS011;7638;49.760;8.646;2023-07-20T07:38:53;8.20;;;2.30;;
15077;SDS011;7638;49.760;8.646;2023-07-20T07:41:19;3.83;;;2.00;;
15077;SDS011;7638;49.760;8.646;2023-07-20T07:43:45;4.70;;;1.87;;
15077;SDS011;7638;49.760;8.646;2023-07-20T07:46:11;5.67;;;2.30;;
15077;SDS011;7638;49.760;8.646;2023-07-20T07:48:38;3.80;;;2.20;;
15077;SDS011;7638;49.760;8.646;2023-07-20T07:51:04;3.10;;;1.77;;
15077;SDS011;7638;49.760;8.646;2023-07-20T07:53:30;4.97;;;2.03;;
15077;SDS011;7638;49.760;8.646;2023-07-20T07:55:57;2.43;;;1.77;;
15077;SDS011;7638;49.760;8.646;2023-07-20T07:58:23;4.33;;;2.10;;
15077;SDS011;7638;49.760;8.646;2023-07-20T08:00:49;3.37;;;2.23;;
15077;SDS011;7638;49.760;8.646;2023-07-20T08:03:15;6.47;;;2.57;;
15077;SDS011;7638;49.760;8.646;2023-07-20T08:05:41;2.13;;;1.57;;
15077;SDS011;7638;49.760;8.646;2023-07-20T08:08:07;5.10;;;2.80;;
15077;SDS011;7638;49.760;8.646;2023-07-20T08:10:33;4.50;;;2.20;;
15077;SDS011;7638;49.760;8.646;2023-07-20T08:13:00;6.30;;;1.77;;
15077;SDS011;7638;49.760;8.646;2023-07-20T08:15:26;2.57;;;1.40;;
15077;SDS011;7638;49.760;8.646;2023-07-20T08:17:52;2.10;;;1.47;;
15077;SDS011;7638;49.760;8.646;2023-07-20T08:20:18;3.33;;;1.77;;
15077;SDS011;7638;49.760;8.646;2023-07-20T08:22:44;2.83;;;2.17;;
15077;SDS011;7638;49.760;8.646;2023-07-20T08:25:10;3.27;;;2.03;;
15077;SDS011;7638;49.760;8.646;2023-07-20T08:27:37;3.07;;;1.90;;
15077;SDS011;7638;49.760;8.646;2023-07-20T08:30:03;3.50;;;2.43;;
15077;SDS011;7638;49.760;8.646;2023-07-20T08:32:30;3.97;;;1.97;;
15077;SDS011;7638;49.760;8.646;2023-07-20T08:34:55;4.87;;;2.03;;
15077;SDS011;7638;49.760;8.646;2023-07-20T08:37:21;2.20;;;1.80;;
15077;SDS011;7638;49.760;8.646;2023-07-20T08:39:47;2.80;;;1.97;;
15077;SDS011;7638;49.760;8.646;2023-07-20T08:42:14;3.97;;;2.27;;
15077;SDS011;7638;49.760;8.646;2023-07-20T08:44:41;5.10;;;2.47;;
15077;SDS011;7638;49.760;8.646;2023-07-20T08:47:07;4.10;;;1.87;;
15077;SDS011;7638;49.760;8.646;2023-07-20T08:49:34;3.30;;;1.60;;
15077;SDS011;7638;49.760;8.646;2023-07-20T08:52:01;6.23;;;2.50;;
15077;SDS011;7638;49.760;8.646;2023-07-20T08:54:29;4.20;;;1.93;;
15077;SDS011;7638;49.760;8.646;2023-07-20T08:56:57;8.70;;;2.40;;
15077;SDS011;7638;49.760;8.646;2023-07-20T08:59:23;7.43;;;2.40;;
15077;SDS011;7638;49.760;8.646;2023-07-20T09:01:50;3.17;;;1.90;;
15077;SDS011;7638;49.760;8.646;2023-07-20T09:04:19;2.50;;;1.60;;
15077;SDS011;7638;49.760;8.646;2023-07-20T09:06:45;2.83;;;1.90;;
15077;SDS011;7638;49.760;8.646;2023-07-20T09:09:12;1.67;;;1.57;;
15077;SDS011;7638;49.760;8.646;2023-07-20T09:11:38;6.77;;;2.27;;
15077;SDS011;7638;49.760;8.646;2023-07-20T09:14:07;2.70;;;1.80;;
15077;SDS011;7638;49.760;8.646;2023-07-20T09:16:50;3.50;;;1.73;;
15077;SDS011;7638;49.760;8.646;2023-07-20T09:19:16;1.93;;;1.70;;
15077;SDS011;7638;49.760;8.646;2023-07-20T09:21:49;4.43;;;1.53;;
15077;SDS011;7638;49.760;8.646;2023-07-20T09:24:16;2.23;;;1.53;;
15077;SDS011;7638;49.760;8.646;2023-07-20T09:26:43;4.47;;;1.60;;
15077;SDS011;7638;49.760;8.646;2023-07-20T09:29:10;4.40;;;2.27;;
15077;SDS011;7638;49.760;8.646;2023-07-20T09:31:36;3.43;;;1.83;;
15077;SDS011;7638;49.760;8.646;2023-07-20T09:34:04;3.13;;;1.93;;
15077;SDS011;7638;49.760;8.646;2023-07-20T09:36:32;3.70;;;1.73;;
15077;SDS011;7638;49.760;8.646;2023-07-20T09:38:59;4.87;;;1.53;;
15077;SDS011;7638;49.760;8.646;2023-07-20T09:41:25;1.30;;;1.10;;
15077;SDS011;7638;49.760;8.646;2023-07-20T09:43:51;3.67;;;1.67;;
15077;SDS011;7638;49.760;8.646;2023-07-20T09:46:18;1.60;;;1.30;;
15077;SDS011;7638;49.760;8.646;2023-07-20T09:48:51;3.97;;;1.73;;
15077;SDS011;7638;49.760;8.646;2023-07-20T09:51:24;10.67;;;1.77;;
15077;SDS011;7638;49.760;8.646;2023-07-20T09:53:51;3.10;;;1.47;;
15077;SDS011;7638;49.760;8.646;2023-07-20T09:56:20;1.30;;;1.20;;
15077;SDS011;7638;49.760;8.646;2023-07-20T09:58:46;3.23;;;1.80;;
15077;SDS011;7638;49.760;8.646;2023-07-20T10:01:12;1.90;;;1.50;;
15077;SDS011;7638;49.760;8.646;2023-07-20T10:03:42;2.67;;;1.53;;
15077;SDS011;7638;49.760;8.646;2023-07-20T10:06:10;2.20;;;1.53;;
15077;SDS011;7638;49.760;8.646;2023-07-20T10:08:39;3.47;;;1.27;;
15077;SDS011;7638;49.760;8.646;2023-07-20T10:11:06;1.67;;;1.57;;
15077;SDS011;7638;49.760;8.646;2023-07-20T10:13:32;2.70;;;1.67;;
15077;SDS011;7638;49.760;8.646;2023-07-20T10:16:03;3.83;;;1.30;;
15077;SDS011;7638;49.760;8.646;2023-07-20T10:20:55;2.80;;;1.70;;
15077;SDS011;7638;49.760;8.646;2023-07-20T10:23:22;3.27;;;1.50;;
15077;SDS011;7638;49.760;8.646;2023-07-20T10:25:49;2.43;;;1.57;;
15077;SDS011;7638;49.760;8.646;2023-07-20T10:28:15;2.97;;;1.30;;
15077;SDS011;7638;49.760;8.646;2023-07-20T10:30:42;1.90;;;1.70;;
15077;SDS011;7638;49.760;8.646;2023-07-20T10:33:08;1.87;;;1.47;;
15077;SDS011;7638;49.760;8.646;2023-07-20T10:38:19;4.87;;;1.50;;
15077;SDS011;7638;49.760;8.646;2023-07-20T10:40:54;3.43;;;1.20;;
15077;SDS011;7638;49.760;8.646;2023-07-20T10:43:21;5.60;;;1.70;;
15077;SDS011;7638;49.760;8.646;2023-07-20T10:45:50;3.73;;;1.20;;
15077;SDS011;7638;49.760;8.646;2023-07-20T10:48:23;1.77;;;1.30;;
15077;SDS011;7638;49.760;8.646;2023-07-20T10:51:08;1.53;;;1.43;;
15077;SDS011;7638;49.760;8.646;2023-07-20T10:53:35;2.07;;;1.40;;
15077;SDS011;7638;49.760;8.646;2023-07-20T10:56:08;4.13;;;1.30;;
15077;SDS011;7638;49.760;8.646;2023-07-20T10:58:36;2.63;;;1.20;;
15077;SDS011;7638;49.760;8.646;2023-07-20T11:01:03;1.80;;;1.50;;
15077;SDS011;7638;49.760;8.646;2023-07-20T11:03:32;1.70;;;1.10;;
15077;SDS011;7638;49.760;8.646;2023-07-20T11:05:58;3.43;;;2.13;;
15077;SDS011;7638;49.760;8.646;2023-07-20T11:08:40;1.27;;;1.17;;
15077;SDS011;7638;49.760;8.646;2023-07-20T11:16:31;1.50;;;1.30;;
15077;SDS011;7638;49.760;8.646;2023-07-20T11:18:58;1.33;;;1.23;;
15077;SDS011;7638;49.760;8.646;2023-07-20T11:21:24;1.37;;;1.20;;
15077;SDS011;7638;49.760;8.646;2023-07-20T11:23:52;1.23;;;1.13;;
15077;SDS011;7638;49.760;8.646;2023-07-20T11:26:18;2.40;;;1.50;;
15077;SDS011;7638;49.760;8.646;2023-07-20T11:28:48;1.67;;;1.00;;
15077;SDS011;7638;49.760;8.646;2023-07-20T11:31:14;1.93;;;1.40;;
15077;SDS011;7638;49.760;8.646;2023-07-20T11:33:41;1.37;;;1.10;;
15077;SDS011;7638;49.760;8.646;2023-07-20T11:36:10;1.20;;;0.97;;
15077;SDS011;7638;49.760;8.646;2023-07-20T11:38:36;1.17;;;1.07;;
15077;SDS011;7638;49.760;8.646;2023-07-20T11:41:02;1.20;;;0.93;;
15077;SDS011;7638;49.760;8.646;2023-07-20T11:43:29;1.60;;;1.10;;
15077;SDS011;7638;49.760;8.646;2023-07-20T11:45:55;1.27;;;1.10;;
15077;SDS011;7638;49.760;8.646;2023-07-20T11:48:21;2.47;;;1.03;;
15077;SDS011;7638;49.760;8.646;2023-07-20T11:50:47;3.90;;;1.20;;
15077;SDS011;7638;49.760;8.646;2023-07-20T11:53:14;3.17;;;1.10;;
15077;SDS011;7638;49.760;8.646;2023-07-20T11:55:40;3.47;;;1.03;;
15077;SDS011;7638;49.760;8.646;2023-07-20T11:58:07;3.40;;;1.57;;
15077;SDS011;7638;49.760;8.646;2023-07-20T12:00:33;1.20;;;1.10;;
15077;SDS011;7638;49.760;8.646;2023-07-20T12:03:00;1.30;;;1.20;;
15077;SDS011;7638;49.760;8.646;2023-07-20T12:05:26;2.73;;;1.70;;
15077;SDS011;7638;49.760;8.646;2023-07-20T12:07:53;2.83;;;1.10;;
15077;SDS011;7638;49.760;8.646;2023-07-20T12:10:24;1.37;;;1.20;;
15077;SDS011;7638;49.760;8.646;2023-07-20T12:12:50;1.67;;;1.13;;
15077;SDS011;7638;49.760;8.646;2023-07-20T12:15:17;1.43;;;1.00;;
15077;SDS011;7638;49.760;8.646;2023-07-20T12:17:46;2.83;;;1.47;;
15077;SDS011;7638;49.760;8.646;2023-07-20T12:20:12;2.00;;;1.43;;
15077;SDS011;7638;49.760;8.646;2023-07-20T12:22:39;1.27;;;1.10;;
15077;SDS011;7638;49.760;8.646;2023-07-20T12:25:09;1.30;;;1.20;;
15077;SDS011;7638;49.760;8.646;2023-07-20T12:27:36;4.60;;;1.20;;
15077;SDS011;7638;49.760;8.646;2023-07-20T12:30:03;5.07;;;1.20;;
15077;SDS011;7638;49.760;8.646;2023-07-20T12:32:29;2.80;;;1.20;;
15077;SDS011;7638;49.760;8.646;2023-07-20T12:34:55;7.73;;;1.30;;
15077;SDS011;7638;49.760;8.646;2023-07-20T12:37:21;2.37;;;1.20;;
15077;SDS011;7638;49.760;8.646;2023-07-20T12:39:47;1.77;;;1.20;;
15077;SDS011;7638;49.760;8.646;2023-07-20T12:42:13;3.63;;;1.30;;
15077;SDS011;7638;49.760;8.646;2023-07-20T12:44:40;1.93;;;1.40;;
15077;SDS011;7638;49.760;8.646;2023-07-20T12:47:06;2.63;;;1.17;;
15077;SDS011;7638;49.760;8.646;2023-07-20T12:49:32;3.13;;;1.43;;
15077;SDS011;7638;49.760;8.646;2023-07-20T12:51:58;1.40;;;1.30;;
15077;SDS011;7638;49.760;8.646;2023-07-20T12:54:24;2.67;;;1.17;;
15077;SDS011;7638;49.760;8.646;2023-07-20T12:56:50;2.30;;;1.13;;
15077;SDS011;7638;49.760;8.646;2023-07-20T12:59:16;3.63;;;1.30;;
15077;SDS011;7638;49.760;8.646;2023-07-20T13:01:42;1.83;;;1.20;;
15077;SDS011;7638;49.760;8.646;2023-07-20T13:04:09;2.20;;;1.07;;
15077;SDS011;7638;49.760;8.646;2023-07-20T13:06:35;1.30;;;1.20;;
15077;SDS011;7638;49.760;8.646;2023-07-20T13:09:01;0.83;;;0.83;;
15077;SDS011;7638;49.760;8.646;2023-07-20T13:11:28;1.30;;;1.20;;
15077;SDS011;7638;49.760;8.646;2023-07-20T13:13:54;1.67;;;1.30;;
15077;SDS011;7638;49.760;8.646;2023-07-20T13:16:20;2.03;;;1.13;;
15077;SDS011;7638;49.760;8.646;2023-07-20T13:18:46;1.50;;;1.40;;
15077;SDS011;7638;49.760;8.646;2023-07-20T13:21:12;2.37;;;1.00;;
15077;SDS011;7638;49.760;8.646;2023-07-20T13:23:38;1.67;;;1.10;;
15077;SDS011;7638;49.760;8.646;2023-07-20T13:26:04;1.97;;;1.33;;
15077;SDS011;7638;49.760;8.646;2023-07-20T13:28:30;1.20;;;1.00;;
15077;SDS011;7638;49.760;8.646;2023-07-20T13:30:56;4.37;;;1.30;;
15077;SDS011;7638;49.760;8.646;2023-07-20T13:33:22;2.43;;;1.33;;
15077;SDS011;7638;49.760;8.646;2023-07-20T13:35:48;3.13;;;1.63;;
15077;SDS011;7638;49.760;8.646;2023-07-20T13:38:14;1.70;;;1.33;;
15077;SDS011;7638;49.760;8.646;2023-07-20T13:40:40;1.80;;;1.13;;
15077;SDS011;7638;49.760;8.646;2023-07-20T13:43:07;5.03;;;1.43;;
15077;SDS011;7638;49.760;8.646;2023-07-20T13:45:33;1.77;;;1.40;;
15077;SDS011;7638;49.760;8.646;2023-07-20T13:47:59;3.07;;;1.50;;
15077;SDS011;7638;49.760;8.646;2023-07-20T13:50:25;2.27;;;1.50;;
15077;SDS011;7638;49.760;8.646;2023-07-20T13:52:51;3.00;;;1.30;;
15077;SDS011;7638;49.760;8.646;2023-07-20T13:55:17;1.80;;;1.30;;
15077;SDS011;7638;49.760;8.646;2023-07-20T13:57:43;4.93;;;1.83;;
15077;SDS011;7638;49.760;8.646;2023-07-20T14:00:10;2.20;;;1.37;;
15077;SDS011;7638;49.760;8.646;2023-07-20T14:02:36;1.83;;;1.10;;
15077;SDS011;7638;49.760;8.646;2023-07-20T14:05:02;2.17;;;1.30;;
15077;SDS011;7638;49.760;8.646;2023-07-20T14:07:28;1.47;;;1.33;;
15077;SDS011;7638;49.760;8.646;2023-07-20T14:09:54;1.40;;;1.27;;
15077;SDS011;7638;49.760;8.646;2023-07-20T14:12:20;5.30;;;1.80;;
15077;SDS011;7638;49.760;8.646;2023-07-20T14:14:46;1.27;;;1.17;;
15077;SDS011;7638;49.760;8.646;2023-07-20T14:17:12;1.63;;;1.33;;
15077;SDS011;7638;49.760;8.646;2023-07-20T14:19:38;1.40;;;1.23;;
15077;SDS011;7638;49.760;8.646;2023-07-20T14:22:05;1.70;;;1.10;;
15077;SDS011;7638;49.760;8.646;2023-07-20T14:24:31;1.30;;;1.20;;
15077;SDS011;7638;49.760;8.646;2023-07-20T14:26:57;1.53;;;1.10;;
15077;SDS011;7638;49.760;8.646;2023-07-20T14:29:23;2.63;;;1.53;;
15077;SDS011;7638;49.760;8.646;2023-07-20T14:31:49;1.47;;;1.03;;
15077;SDS011;7638;49.760;8.646;2023-07-20T14:34:18;4.23;;;1.00;;
15077;SDS011;7638;49.760;8.646;2023-07-20T14:36:44;1.13;;;0.93;;
15077;SDS011;7638;49.760;8.646;2023-07-20T14:39:10;1.33;;;1.13;;
15077;SDS011;7638;49.760;8.646;2023-07-20T14:41:36;1.70;;;1.20;;
15077;SDS011;7638;49.760;8.646;2023-07-20T14:44:02;3.07;;;1.40;;
15077;SDS011;7638;49.760;8.646;2023-07-20T14:46:28;2.00;;;1.50;;
15077;SDS011;7638;49.760;8.646;2023-07-20T14:48:55;3.83;;;1.70;;
15077;SDS011;7638;49.760;8.646;2023-07-20T14:51:21;2.80;;;1.30;;
15077;SDS011;7638;49.760;8.646;2023-07-20T14:53:47;1.40;;;1.30;;
15077;SDS011;7638;49.760;8.646;2023-07-20T14:56:13;1.20;;;1.10;;
15077;SDS011;7638;49.760;8.646;2023-07-20T14:58:39;1.43;;;1.10;;
15077;SDS011;7638;49.760;8.646;2023-07-20T15:01:05;1.30;;;1.10;;
15077;SDS011;7638;49.760;8.646;2023-07-20T15:03:31;2.20;;;1.37;;
15077;SDS011;7638;49.760;8.646;2023-07-20T15:05:57;1.20;;;1.10;;
15077;SDS011;7638;49.760;8.646;2023-07-20T15:08:23;1.80;;;1.20;;
15077;SDS011;7638;49.760;8.646;2023-07-20T15:10:49;2.50;;;1.13;;
15077;SDS011;7638;49.760;8.646;2023-07-20T15:13:15;1.70;;;1.20;;